createdAt,value
2022-09-06T00:00:59.913Z,2.23
2022-09-06T00:03:30.022Z,2.20
2022-09-06T00:05:56.782Z,2.10
2022-09-06T00:08:23.660Z,2.35
2022-09-06T00:11:01.077Z,2.60
2022-09-06T00:13:28.583Z,2.63
2022-09-06T00:15:55.672Z,2.58
2022-09-06T00:18:22.626Z,2.70
2022-09-06T00:20:49.488Z,2.83
2022-09-06T00:23:16.259Z,2.80
2022-09-06T00:25:43.040Z,2.77
2022-09-06T00:28:09.900Z,2.80
2022-09-06T00:30:36.676Z,3.10
2022-09-06T00:33:03.523Z,3.38
2022-09-06T00:35:30.299Z,3.67
2022-09-06T00:38:01.331Z,3.60
2022-09-06T00:40:30.247Z,3.90
2022-09-06T00:42:58.189Z,4.18
2022-09-06T00:45:27.939Z,3.70
2022-09-06T00:47:55.929Z,3.72
2022-09-06T00:50:22.920Z,3.60
2022-09-06T00:52:51.856Z,3.40
2022-09-06T00:55:19.520Z,3.40
2022-09-06T00:58:01.236Z,3.63
2022-09-06T01:00:28.247Z,3.53
2022-09-06T01:02:55.066Z,3.53
2022-09-06T01:05:28.968Z,3.70
2022-09-06T01:08:29.393Z,3.60
2022-09-06T01:11:14.702Z,3.50
2022-09-06T01:14:36.734Z,4.05
2022-09-06T01:17:29.731Z,3.17
2022-09-06T01:19:59.516Z,3.50
2022-09-06T01:22:47.306Z,3.65
2022-09-06T01:25:41.998Z,3.30
2022-09-06T01:28:27.717Z,4.03
2022-09-06T01:31:05.124Z,3.93
2022-09-06T01:33:46.113Z,3.75
2022-09-06T01:36:17.259Z,4.00
2022-09-06T01:38:44.369Z,3.83
2022-09-06T01:41:11.623Z,3.90
2022-09-06T01:43:42.775Z,4.40
2022-09-06T01:46:44.505Z,4.60
2022-09-06T01:49:20.275Z,4.68
2022-09-06T01:51:53.080Z,4.75
2022-09-06T01:54:33.441Z,5.10
2022-09-06T01:57:14.918Z,5.00
2022-09-06T01:59:50.648Z,4.80
2022-09-06T02:02:23.322Z,4.50
2022-09-06T02:05:24.174Z,4.53
2022-09-06T02:07:56.458Z,4.93
2022-09-06T02:10:49.382Z,5.10
2022-09-06T02:13:18.977Z,5.50
2022-09-06T02:16:07.237Z,5.18
2022-09-06T02:19:08.322Z,5.28
2022-09-06T02:21:40.074Z,5.60
2022-09-06T02:24:12.065Z,5.23
2022-09-06T02:26:43.304Z,5.57
2022-09-06T02:29:10.627Z,5.60
2022-09-06T02:32:14.283Z,5.57
2022-09-06T02:34:41.796Z,5.95
2022-09-06T02:37:09.094Z,6.00
2022-09-06T02:39:35.951Z,5.65
2022-09-06T02:42:02.843Z,5.97
2022-09-06T02:44:29.663Z,6.00
2022-09-06T02:46:57.370Z,5.90
2022-09-06T02:49:24.663Z,6.43
2022-09-06T02:51:51.438Z,6.32
2022-09-06T02:54:18.129Z,6.35
2022-09-06T02:56:47.050Z,6.90
2022-09-06T02:59:17.032Z,6.80
2022-09-06T03:01:43.930Z,7.17
2022-09-06T03:04:10.838Z,7.00
2022-09-06T03:06:37.650Z,7.28
2022-09-06T03:09:04.492Z,7.35
2022-09-06T03:11:31.279Z,7.38
2022-09-06T03:13:58.044Z,7.97
2022-09-06T03:16:25.007Z,7.70
2022-09-06T03:18:51.774Z,8.23
2022-09-06T03:21:18.669Z,7.88
2022-09-06T03:23:45.945Z,7.82
2022-09-06T03:26:12.875Z,8.23
2022-09-06T03:28:39.862Z,8.38
2022-09-06T03:31:06.809Z,8.63
2022-09-06T03:33:33.782Z,8.68
2022-09-06T03:36:02.316Z,8.90
2022-09-06T03:38:29.995Z,8.83
2022-09-06T03:40:57.078Z,8.25
2022-09-06T03:43:25.454Z,8.18
2022-09-06T03:45:54.710Z,8.70
2022-09-06T03:48:23.353Z,8.07
2022-09-06T03:50:52.779Z,8.10
2022-09-06T03:53:20.501Z,7.95
2022-09-06T03:55:49.020Z,7.78
2022-09-06T03:58:17.327Z,8.23
2022-09-06T04:00:44.710Z,8.30
2022-09-06T04:03:12.132Z,8.50
2022-09-06T04:05:39.349Z,7.97
2022-09-06T04:08:06.164Z,8.05
2022-09-06T04:10:33.835Z,8.20
2022-09-06T04:13:00.664Z,8.88
2022-09-06T04:15:27.522Z,8.43
2022-09-06T04:17:54.301Z,9.00
2022-09-06T04:20:21.062Z,9.18
2022-09-06T04:22:47.768Z,8.48
2022-09-06T04:25:14.681Z,8.45
2022-09-06T04:27:41.504Z,8.80
2022-09-06T04:30:08.853Z,9.40
2022-09-06T04:32:35.630Z,9.50
2022-09-06T04:35:02.539Z,9.25
2022-09-06T04:37:29.331Z,8.80
2022-09-06T04:39:56.236Z,9.17
2022-09-06T04:42:23.177Z,9.05
2022-09-06T04:44:49.975Z,9.35
2022-09-06T04:47:19.123Z,9.95
2022-09-06T04:49:49.260Z,10.20
2022-09-06T04:52:16.724Z,10.27
2022-09-06T04:54:44.006Z,10.32
2022-09-06T04:57:11.440Z,10.13
2022-09-06T04:59:38.300Z,10.52
2022-09-06T05:02:06.292Z,10.40
2022-09-06T05:04:33.179Z,10.53
2022-09-06T05:07:05.006Z,10.85
2022-09-06T05:09:33.172Z,11.32
2022-09-06T05:12:00.502Z,11.60
2022-09-06T05:14:28.154Z,11.35
2022-09-06T05:16:55.711Z,11.70
2022-09-06T05:19:22.615Z,12.40
2022-09-06T05:21:51.573Z,11.98
2022-09-06T05:24:18.470Z,11.68
2022-09-06T05:26:45.276Z,12.65
2022-09-06T05:29:12.242Z,11.27
2022-09-06T05:31:39.539Z,11.73
2022-09-06T05:34:06.415Z,10.45
2022-09-06T05:36:33.462Z,11.73
2022-09-06T05:39:00.413Z,11.80
2022-09-06T05:41:27.650Z,12.00
2022-09-06T05:43:54.490Z,12.07
2022-09-06T05:46:21.497Z,11.80
2022-09-06T05:48:56.203Z,11.23
2022-09-06T05:51:23.027Z,11.30
2022-09-06T05:53:50.053Z,10.87
2022-09-06T05:56:17.775Z,11.05
2022-09-06T05:58:44.707Z,11.10
2022-09-06T06:01:26.799Z,11.38
2022-09-06T06:03:58.963Z,11.00
2022-09-06T06:06:27.644Z,11.70
2022-09-06T06:08:54.492Z,11.57
2022-09-06T06:11:21.341Z,12.07
2022-09-06T06:13:48.383Z,11.60
2022-09-06T06:16:17.649Z,11.80
2022-09-06T06:18:46.752Z,11.47
2022-09-06T06:21:17.876Z,12.00
2022-09-06T06:23:46.435Z,11.77
2022-09-06T06:26:13.918Z,11.82
2022-09-06T06:28:41.166Z,12.40
2022-09-06T06:31:09.881Z,11.43
2022-09-06T06:33:36.728Z,12.25
2022-09-06T06:36:05.070Z,11.50
2022-09-06T06:38:37.422Z,11.30
2022-09-06T06:41:07.097Z,11.43
2022-09-06T06:43:38.174Z,10.50
2022-09-06T06:46:13.802Z,10.48
2022-09-06T06:48:42.108Z,10.63
2022-09-06T06:51:10.648Z,9.82
2022-09-06T06:53:37.917Z,10.02
2022-09-06T06:56:20.372Z,10.20
2022-09-06T06:58:49.900Z,9.48
2022-09-06T07:01:18.595Z,9.27
2022-09-06T07:03:45.540Z,9.55
2022-09-06T07:06:13.266Z,9.55
2022-09-06T07:08:41.245Z,8.83
2022-09-06T07:11:10.024Z,9.20
2022-09-06T07:13:37.076Z,9.80
2022-09-06T07:16:20.865Z,9.98
2022-09-06T07:18:51.270Z,9.50
2022-09-06T07:26:35.393Z,9.35
2022-09-06T07:29:04.380Z,9.88
2022-09-06T07:34:20.470Z,9.77
2022-09-06T07:36:48.150Z,9.13
2022-09-06T07:39:15.462Z,9.52
2022-09-06T07:41:43.276Z,9.23
2022-09-06T07:44:10.415Z,8.95
2022-09-06T07:46:37.524Z,7.87
2022-09-06T07:49:05.671Z,7.88
2022-09-06T07:51:32.541Z,7.70
2022-09-06T07:54:29.398Z,7.53
2022-09-06T07:56:47.694Z,7.60
2022-09-06T07:59:14.550Z,7.30
2022-09-06T08:01:41.850Z,7.18
2022-09-06T08:04:13.974Z,7.20
2022-09-06T08:09:33.671Z,7.07
2022-09-06T08:12:06.492Z,7.07
2022-09-06T08:14:36.419Z,7.35
2022-09-06T08:17:04.335Z,6.53
2022-09-06T08:19:31.304Z,6.25
2022-09-06T08:21:58.259Z,6.75
2022-09-06T08:24:25.145Z,6.30
2022-09-06T08:26:51.967Z,6.50
2022-09-06T08:29:19.930Z,6.80
2022-09-06T08:31:47.537Z,6.45
2022-09-06T08:34:15.156Z,6.03
2022-09-06T08:36:43.044Z,6.07
2022-09-06T08:39:10.865Z,6.97
2022-09-06T08:41:55.272Z,6.00
2022-09-06T08:47:20.949Z,5.30
2022-09-06T08:49:52.805Z,5.13
2022-09-06T08:52:31.592Z,5.30
2022-09-06T08:55:16.501Z,4.80
2022-09-06T08:57:55.388Z,5.40
2022-09-06T09:00:23.069Z,4.68
2022-09-06T09:02:59.293Z,4.40
2022-09-06T09:05:35.427Z,4.57
2022-09-06T09:08:30.197Z,4.60
2022-09-06T09:11:10.306Z,4.57
2022-09-06T09:13:47.319Z,4.05
2022-09-06T09:16:15.672Z,4.77
2022-09-06T09:18:45.177Z,4.45
2022-09-06T09:21:12.218Z,4.35
2022-09-06T09:23:38.998Z,4.72
2022-09-06T09:26:10.656Z,4.50
2022-09-06T09:28:37.494Z,4.20
2022-09-06T09:31:06.769Z,3.50
2022-09-06T09:33:36.839Z,3.45
2022-09-06T09:36:12.806Z,3.95
2022-09-06T09:38:49.252Z,5.00
2022-09-06T09:41:34.051Z,3.80
2022-09-06T09:44:04.828Z,4.20
2022-09-06T09:46:34.816Z,3.63
2022-09-06T09:49:11.212Z,3.50
2022-09-06T09:51:41.111Z,3.80
2022-09-06T09:54:10.561Z,3.60
2022-09-06T09:57:01.329Z,3.60
2022-09-06T09:59:49.936Z,3.50
2022-09-06T10:02:18.883Z,3.70
2022-09-06T10:04:49.543Z,4.55
2022-09-06T10:07:25.878Z,4.90
2022-09-06T10:10:05.086Z,4.50
2022-09-06T10:12:35.591Z,4.50
2022-09-06T10:15:07.017Z,4.70
2022-09-06T10:17:52.848Z,4.35
2022-09-06T10:20:33.345Z,3.70
2022-09-06T10:23:15.063Z,4.20
2022-09-06T10:26:17.008Z,3.47
2022-09-06T10:28:46.848Z,3.90
2022-09-06T10:31:36.533Z,4.47
2022-09-06T10:34:08.606Z,4.13
2022-09-06T10:36:38.385Z,4.60
2022-09-06T10:39:37.905Z,4.63
2022-09-06T10:42:23.308Z,4.70
2022-09-06T10:45:11.611Z,4.10
2022-09-06T10:48:14.971Z,4.40
2022-09-06T10:50:47.640Z,4.72
2022-09-06T10:53:22.011Z,4.57
2022-09-06T10:56:01.666Z,4.30
2022-09-06T11:01:38.256Z,4.70
2022-09-06T11:04:12.940Z,4.40
2022-09-06T11:06:53.410Z,4.45
2022-09-06T11:09:38.719Z,4.68
2022-09-06T11:12:16.788Z,5.35
2022-09-06T11:14:43.836Z,4.97
2022-09-06T11:17:30.095Z,4.97
2022-09-06T11:20:09.125Z,6.10
2022-09-06T11:22:44.782Z,5.15
2022-09-06T11:25:29.778Z,5.80
2022-09-06T11:27:59.944Z,5.87
2022-09-06T11:30:29.748Z,6.13
2022-09-06T11:33:24.641Z,6.38
2022-09-06T11:35:52.357Z,6.20
2022-09-06T11:38:28.302Z,6.72
2022-09-06T11:41:01.232Z,6.80
2022-09-06T11:43:43.023Z,6.40
2022-09-06T11:46:09.917Z,6.95
2022-09-06T11:49:27.229Z,7.10
2022-09-06T11:51:54.130Z,6.80
2022-09-06T11:54:23.546Z,7.37
2022-09-06T11:57:01.125Z,7.05
2022-09-06T11:59:41.597Z,7.07
2022-09-06T12:02:31.280Z,6.30
2022-09-06T12:05:01.238Z,5.32
2022-09-06T12:07:29.598Z,5.23
2022-09-06T12:09:56.530Z,5.50
2022-09-06T12:12:46.616Z,5.60
2022-09-06T12:15:31.742Z,5.45
2022-09-06T12:18:01.565Z,5.25
2022-09-06T12:20:54.376Z,4.00
2022-09-06T12:23:36.363Z,4.10
2022-09-06T12:26:08.218Z,4.25
2022-09-06T12:28:38.206Z,4.80
2022-09-06T12:31:34.776Z,4.90
2022-09-06T12:34:27.253Z,5.10
2022-09-06T12:36:58.067Z,6.00
2022-09-06T12:39:25.049Z,5.90
2022-09-06T12:42:05.009Z,5.88
2022-09-06T12:44:44.499Z,5.32
2022-09-06T12:47:33.602Z,5.87
2022-09-06T12:50:13.058Z,4.70
2022-09-06T12:52:53.188Z,5.78
2022-09-06T12:55:40.239Z,5.13
2022-09-06T12:58:10.152Z,6.00
2022-09-06T13:00:36.913Z,4.80
2022-09-06T13:03:18.894Z,4.60
2022-09-06T13:05:46.475Z,5.95
2022-09-06T13:08:25.976Z,5.70
2022-09-06T13:10:53.281Z,5.90
2022-09-06T13:13:23.487Z,7.60
2022-09-06T13:15:50.613Z,7.05
2022-09-06T13:18:36.078Z,6.50
2022-09-06T13:21:08.780Z,5.97
2022-09-06T13:23:47.656Z,6.40
2022-09-06T13:26:15.033Z,5.80
2022-09-06T13:28:41.839Z,5.20
2022-09-06T13:31:17.806Z,4.72
2022-09-06T13:33:46.366Z,4.60
2022-09-06T13:36:15.978Z,3.70
2022-09-06T13:38:46.355Z,4.00
2022-09-06T13:41:25.240Z,3.80
2022-09-06T13:44:07.854Z,4.40
2022-09-06T13:46:38.533Z,4.72
2022-09-06T13:49:06.075Z,4.50
2022-09-06T13:51:34.011Z,4.60
2022-09-06T13:54:08.855Z,4.20
2022-09-06T13:56:36.177Z,3.10
2022-09-06T13:59:04.130Z,3.50
2022-09-06T14:01:33.162Z,4.05
2022-09-06T14:04:00.496Z,4.97
2022-09-06T14:06:27.300Z,4.25
2022-09-06T14:09:07.043Z,3.20
2022-09-06T14:11:35.002Z,3.20
2022-09-06T14:14:02.084Z,3.10
2022-09-06T14:16:29.867Z,3.47
2022-09-06T14:18:56.694Z,3.70
2022-09-06T14:21:23.881Z,4.28
2022-09-06T14:23:52.114Z,3.42
2022-09-06T14:26:20.940Z,3.10
2022-09-06T14:28:48.020Z,3.30
2022-09-06T14:31:21.347Z,3.17
2022-09-06T14:33:48.839Z,3.45
2022-09-06T14:36:17.993Z,3.05
2022-09-06T14:38:45.490Z,4.10
2022-09-06T14:41:15.638Z,4.27
2022-09-06T14:43:43.927Z,4.40
2022-09-06T14:46:14.123Z,3.90
2022-09-06T14:48:43.641Z,3.38
2022-09-06T14:51:21.909Z,2.80
2022-09-06T14:53:50.822Z,2.57
2022-09-06T14:56:18.396Z,2.78
2022-09-06T14:58:46.541Z,2.67
2022-09-06T15:01:16.449Z,3.35
2022-09-06T15:03:48.841Z,3.00
2022-09-06T15:06:16.454Z,3.20
2022-09-06T15:08:43.291Z,3.10
2022-09-06T15:11:11.112Z,2.50
2022-09-06T15:13:40.226Z,2.85
2022-09-06T15:16:09.509Z,2.60
2022-09-06T15:18:36.703Z,2.50
2022-09-06T15:21:14.464Z,2.40
2022-09-06T15:23:42.988Z,2.40
2022-09-06T15:26:11.196Z,2.58
2022-09-06T15:28:39.237Z,2.80
2022-09-06T15:31:07.397Z,2.67
2022-09-06T15:33:36.094Z,2.63
2022-09-06T15:36:07.779Z,2.38
2022-09-06T15:38:36.763Z,2.70
2022-09-06T15:41:11.499Z,2.70
2022-09-06T15:43:45.258Z,2.50
2022-09-06T15:46:12.146Z,2.70
2022-09-06T15:48:47.235Z,2.38
2022-09-06T15:51:17.486Z,2.40
2022-09-06T15:53:44.910Z,2.40
2022-09-06T15:56:15.013Z,2.30
2022-09-06T15:58:42.242Z,2.60
2022-09-06T16:01:10.320Z,2.50
2022-09-06T16:03:39.839Z,2.80
2022-09-06T16:06:25.361Z,2.78
2022-09-06T16:09:01.271Z,2.80
2022-09-06T16:11:29.736Z,2.50
2022-09-06T16:13:56.700Z,2.80
2022-09-06T16:16:23.616Z,2.60
2022-09-06T16:18:52.144Z,2.88
2022-09-06T16:21:23.879Z,2.67
2022-09-06T16:23:59.143Z,2.55
2022-09-06T16:26:28.702Z,3.00
2022-09-06T16:28:55.553Z,2.85
2022-09-06T16:31:22.843Z,3.00
2022-09-06T16:33:50.191Z,2.70
2022-09-06T16:36:18.725Z,2.75
2022-09-06T16:38:45.751Z,2.85
2022-09-06T16:41:28.660Z,2.80
2022-09-06T16:43:55.805Z,2.80
2022-09-06T16:46:24.139Z,2.60
2022-09-06T16:48:55.804Z,2.65
2022-09-06T16:51:24.590Z,2.65
2022-09-06T16:53:52.422Z,2.63
2022-09-06T16:56:22.637Z,2.60
2022-09-06T16:59:00.142Z,2.60
2022-09-06T17:01:29.346Z,2.72
2022-09-06T17:03:57.455Z,2.40
2022-09-06T17:06:24.918Z,2.40
2022-09-06T17:08:52.087Z,2.38
2022-09-06T17:11:22.017Z,2.73
2022-09-06T17:13:50.831Z,2.60
2022-09-06T17:16:37.166Z,2.70
2022-09-06T17:19:05.452Z,2.60
2022-09-06T17:21:32.735Z,2.90
2022-09-06T17:24:02.964Z,2.60
2022-09-06T17:26:30.756Z,2.60
2022-09-06T17:28:57.696Z,2.67
2022-09-06T17:31:26.218Z,2.90
2022-09-06T17:33:53.643Z,2.83
2022-09-06T17:36:26.684Z,3.40
2022-09-06T17:38:59.278Z,3.08
2022-09-06T17:41:30.034Z,2.85
2022-09-06T17:43:58.701Z,2.80
2022-09-06T17:46:28.939Z,2.70
2022-09-06T17:48:56.862Z,3.10
2022-09-06T17:51:24.936Z,2.70
2022-09-06T17:53:52.585Z,2.72
2022-09-06T17:56:20.451Z,2.50
2022-09-06T17:59:00.001Z,2.80
2022-09-06T18:01:30.073Z,2.40
2022-09-06T18:03:57.861Z,2.70
2022-09-06T18:06:28.361Z,2.50
2022-09-06T18:08:57.269Z,2.40
2022-09-06T18:11:26.897Z,2.42
2022-09-06T18:14:05.711Z,2.50
2022-09-06T18:16:34.097Z,2.45
2022-09-06T18:19:04.461Z,2.47
2022-09-06T18:21:33.339Z,2.58
2022-09-06T18:24:00.146Z,2.47
2022-09-06T18:26:27.176Z,2.37
2022-09-06T18:28:54.283Z,2.40
2022-09-06T18:31:23.490Z,2.40
2022-09-06T18:33:50.680Z,2.60
2022-09-06T18:36:18.506Z,2.60
2022-09-06T18:38:46.024Z,2.50
2022-09-06T18:41:33.588Z,2.50
2022-09-06T18:44:02.844Z,2.40
2022-09-06T18:46:31.419Z,2.30
2022-09-06T18:48:58.750Z,2.50
2022-09-06T18:51:26.251Z,2.47
2022-09-06T18:53:54.933Z,2.30
2022-09-06T18:56:21.852Z,2.40
2022-09-06T18:58:48.678Z,2.55
2022-09-06T19:01:17.700Z,2.47
2022-09-06T19:03:44.628Z,2.20
2022-09-06T19:06:14.138Z,2.40
2022-09-06T19:08:41.912Z,2.35
2022-09-06T19:11:11.679Z,2.50
2022-09-06T19:13:41.707Z,2.40
2022-09-06T19:16:09.724Z,2.27
2022-09-06T19:18:36.930Z,2.70
2022-09-06T19:21:06.975Z,2.85
2022-09-06T19:23:35.747Z,2.80
2022-09-06T19:26:17.852Z,2.90
2022-09-06T19:28:53.196Z,2.60
2022-09-06T19:31:20.407Z,2.72
2022-09-06T19:33:49.290Z,2.97
2022-09-06T19:36:18.371Z,2.97
2022-09-06T19:39:02.935Z,3.00
2022-09-06T19:41:31.865Z,2.80
2022-09-06T19:43:59.165Z,3.30
2022-09-06T19:46:26.791Z,3.13
2022-09-06T19:48:56.103Z,2.97
2022-09-06T19:51:24.210Z,3.40
2022-09-06T19:53:59.815Z,3.30
2022-09-06T19:56:33.257Z,3.50
2022-09-06T19:59:05.932Z,3.30
2022-09-06T20:01:34.359Z,3.20
2022-09-06T20:04:03.432Z,2.90
2022-09-06T20:06:31.363Z,3.10
2022-09-06T20:09:00.023Z,3.13
2022-09-06T20:11:31.780Z,3.17
2022-09-06T20:14:00.013Z,3.20
2022-09-06T20:16:27.460Z,2.70
2022-09-06T20:18:55.603Z,3.33
2022-09-06T20:21:22.593Z,3.00
2022-09-06T20:23:50.905Z,3.20
2022-09-06T20:26:18.836Z,3.00
2022-09-06T20:28:45.766Z,3.00
2022-09-06T20:31:16.302Z,2.93
2022-09-06T20:33:48.777Z,3.28
2022-09-06T20:36:17.293Z,3.80
2022-09-06T20:38:45.789Z,3.83
2022-09-06T20:41:18.229Z,3.80
2022-09-06T20:43:45.144Z,4.30
2022-09-06T20:46:19.457Z,4.40
2022-09-06T20:48:47.442Z,4.60
2022-09-06T20:51:19.122Z,4.95
2022-09-06T20:53:53.575Z,5.45
2022-09-06T20:56:33.595Z,5.30
2022-09-06T20:59:02.566Z,5.35
2022-09-06T21:01:34.249Z,6.03
2022-09-06T21:04:03.024Z,5.80
2022-09-06T21:06:33.742Z,5.65
2022-09-06T21:09:00.517Z,6.17
2022-09-06T21:11:27.876Z,6.53
2022-09-06T21:13:56.562Z,6.20
2022-09-06T21:16:26.117Z,5.65
2022-09-06T21:18:54.925Z,6.55
2022-09-06T21:21:22.367Z,6.80
2022-09-06T21:23:49.910Z,6.43
2022-09-06T21:26:17.271Z,6.88
2022-09-06T21:28:46.039Z,6.15
2022-09-06T21:31:18.405Z,6.40
2022-09-06T21:33:48.066Z,7.00
2022-09-06T21:36:17.869Z,7.30
2022-09-06T21:38:47.221Z,7.22
2022-09-06T21:41:15.986Z,7.07
2022-09-06T21:43:43.766Z,7.15
2022-09-06T21:46:17.976Z,6.57
2022-09-06T21:48:47.402Z,6.68
2022-09-06T21:51:20.021Z,7.55
2022-09-06T21:53:48.732Z,7.60
2022-09-06T21:56:16.591Z,10.57
2022-09-06T21:58:44.545Z,8.70
2022-09-06T22:01:11.507Z,8.50
2022-09-06T22:03:42.068Z,7.50
2022-09-06T22:06:11.088Z,7.18
2022-09-06T22:08:38.502Z,5.30
2022-09-06T22:11:09.848Z,5.27
2022-09-06T22:13:40.949Z,5.60
2022-09-06T22:16:16.447Z,6.80
2022-09-06T22:18:44.827Z,5.80
2022-09-06T22:21:21.728Z,5.35
2022-09-06T22:24:00.360Z,3.10
2022-09-06T22:26:31.044Z,3.33
2022-09-06T22:29:00.407Z,3.03
2022-09-06T22:31:29.450Z,3.85
2022-09-06T22:33:57.378Z,4.30
2022-09-06T22:36:25.391Z,3.90
2022-09-06T22:38:57.068Z,4.13
2022-09-06T22:41:25.901Z,4.28
2022-09-06T22:43:58.516Z,4.45
2022-09-06T22:46:25.792Z,5.32
2022-09-06T22:48:53.210Z,6.83
2022-09-06T22:51:20.082Z,6.78
2022-09-06T22:53:47.034Z,7.70
2022-09-06T22:56:13.849Z,8.20
2022-09-06T22:58:40.597Z,8.68
2022-09-06T23:01:15.272Z,8.20
2022-09-06T23:03:42.776Z,7.38
2022-09-06T23:06:09.948Z,7.30
2022-09-06T23:08:38.109Z,6.47
2022-09-06T23:11:07.255Z,5.90
2022-09-06T23:13:34.853Z,5.60
2022-09-06T23:16:13.898Z,5.35
2022-09-06T23:18:40.723Z,4.60
2022-09-06T23:21:09.487Z,4.40
2022-09-06T23:23:38.104Z,4.60
2022-09-06T23:26:10.672Z,4.60
2022-09-06T23:28:38.614Z,4.10
2022-09-06T23:31:10.426Z,4.93
2022-09-06T23:33:37.564Z,4.53
2022-09-06T23:36:06.063Z,4.53
2022-09-06T23:38:34.490Z,4.10
2022-09-06T23:41:02.293Z,4.53
2022-09-06T23:43:29.575Z,4.50
2022-09-06T23:45:56.535Z,4.50
2022-09-06T23:48:24.026Z,4.53
2022-09-06T23:50:51.063Z,4.40
2022-09-06T23:53:18.571Z,4.60
2022-09-06T23:55:45.420Z,4.38
2022-09-06T23:58:12.421Z,4.57
